Terminal Aerodrome Forecast
Issued by NWS Shreveport, LA

Home | Current Version | Previous Version | Text Only | Print | Product List | Glossary On
Versions: 1 2 3 4 5 6 7 8 9 10 11 12 13 14 15 16 17 18 19 20 21 22 23 24 25 26 27 28 29 30 31 32 33 34 35 36 37 38 39 40 41 42 43
000
FTUS44 KSHV 201149 AAP
TAFGGG
TAF AMD
KGGG 201149Z 2012/2112 20004KT P6SM SCT008 OVC090
     FM201500 16005KT P6SM BKN015 OVC025
     FM201800 17010KT P6SM SCT025 BKN035
     FM210000 14004KT P6SM BKN250
     FM210600 16004KT 6SM BR BKN250
     FM211100 14003KT 4SM BR BKN003=

USA.gov is the U.S. government's official web portal to all federal, state and local government web resources and services.